Terminal Aerodrome Forecast
Issued by NWS

Home | Current Version | Previous Version | Text Only | Print | Product List | Glossary On
Versions: 1 2 3 4 5 6 7 8 9 10 11 12 13 14 15 16 17 18 19 20 21 22 23 24 25 26 27 28 29
000
FTUS45 KSLC 290258 AAB
TAFOGD
TAF AMD
KOGD 290258Z 2903/2924 15007KT 4SM -SN BR FEW005 SCT020 OVC040
     FM290500 18005KT P6SM VCSH SCT020 BKN040
     FM291000 29006KT P6SM VCSH SCT020 BKN040
     FM292200 05012KT P6SM VCSH SCT030 BKN050=

USA.gov is the U.S. government's official web portal to all federal, state and local government web resources and services.